sensor_id;sensor_type;location;lat;lon;timestamp;temperature;humidity
37530;DHT22;23374;52.758;6.872;2023-02-05T00:01:32;4.60;1.00
37530;DHT22;23374;52.758;6.872;2023-02-05T00:03:53;4.60;1.00
37530;DHT22;23374;52.758;6.872;2023-02-05T00:06:14;4.60;1.00
37530;DHT22;23374;52.758;6.872;2023-02-05T00:08:34;4.60;1.00
37530;DHT22;23374;52.758;6.872;2023-02-05T00:10:55;4.70;1.00
37530;DHT22;23374;52.758;6.872;2023-02-05T00:13:15;4.70;23.40
37530;DHT22;23374;52.758;6.872;2023-02-05T00:15:39;4.70;1.00
37530;DHT22;23374;52.758;6.872;2023-02-05T00:17:59;4.70;1.00
37530;DHT22;23374;52.758;6.872;2023-02-05T00:20:20;4.70;95.20
37530;DHT22;23374;52.758;6.872;2023-02-05T00:22:40;4.70;99.90
37530;DHT22;23374;52.758;6.872;2023-02-05T00:25:00;4.70;99.90
37530;DHT22;23374;52.758;6.872;2023-02-05T00:27:21;4.70;52.60
37530;DHT22;23374;52.758;6.872;2023-02-05T00:29:41;4.80;99.90
37530;DHT22;23374;52.758;6.872;2023-02-05T00:32:01;4.80;99.90
37530;DHT22;23374;52.758;6.872;2023-02-05T00:34:22;4.80;91.70
37530;DHT22;23374;52.758;6.872;2023-02-05T00:36:42;4.80;41.10
37530;DHT22;23374;52.758;6.872;2023-02-05T00:39:03;4.80;99.90
37530;DHT22;23374;52.758;6.872;2023-02-05T00:41:23;4.80;14.80
37530;DHT22;23374;52.758;6.872;2023-02-05T00:43:44;4.80;92.00
37530;DHT22;23374;52.758;6.872;2023-02-05T00:46:06;4.70;99.90
37530;DHT22;23374;52.758;6.872;2023-02-05T00:48:26;4.70;99.90
37530;DHT22;23374;52.758;6.872;2023-02-05T00:50:48;4.80;99.90
37530;DHT22;23374;52.758;6.872;2023-02-05T00:53:09;4.80;99.90
37530;DHT22;23374;52.758;6.872;2023-02-05T00:55:30;4.80;99.90
37530;DHT22;23374;52.758;6.872;2023-02-05T00:57:50;4.80;99.90
37530;DHT22;23374;52.758;6.872;2023-02-05T01:00:12;4.80;99.90
37530;DHT22;23374;52.758;6.872;2023-02-05T01:02:33;4.90;99.90
37530;DHT22;23374;52.758;6.872;2023-02-05T01:04:53;4.90;99.90
37530;DHT22;23374;52.758;6.872;2023-02-05T01:07:14;4.90;99.90
37530;DHT22;23374;52.758;6.872;2023-02-05T01:09:34;4.90;99.90
37530;DHT22;23374;52.758;6.872;2023-02-05T01:11:54;4.90;99.90
37530;DHT22;23374;52.758;6.872;2023-02-05T01:14:14;4.90;99.90
37530;DHT22;23374;52.758;6.872;2023-02-05T01:16:35;4.90;99.90
37530;DHT22;23374;52.758;6.872;2023-02-05T01:18:55;4.90;99.90
37530;DHT22;23374;52.758;6.872;2023-02-05T01:21:15;4.90;99.90
37530;DHT22;23374;52.758;6.872;2023-02-05T01:23:35;5.00;99.90
37530;DHT22;23374;52.758;6.872;2023-02-05T01:25:55;5.00;99.90
37530;DHT22;23374;52.758;6.872;2023-02-05T01:28:16;5.00;99.90
37530;DHT22;23374;52.758;6.872;2023-02-05T01:30:36;5.00;99.90
37530;DHT22;23374;52.758;6.872;2023-02-05T01:32:57;5.10;99.90
37530;DHT22;23374;52.758;6.872;2023-02-05T01:35:17;5.10;99.90
37530;DHT22;23374;52.758;6.872;2023-02-05T01:37:38;5.10;99.90
37530;DHT22;23374;52.758;6.872;2023-02-05T01:39:58;5.10;99.90
37530;DHT22;23374;52.758;6.872;2023-02-05T01:42:26;5.10;99.90
37530;DHT22;23374;52.758;6.872;2023-02-05T01:48:38;5.10;1.00
37530;DHT22;23374;52.758;6.872;2023-02-05T01:51:05;5.10;1.00
37530;DHT22;23374;52.758;6.872;2023-02-05T01:53:31;5.00;1.00
37530;DHT22;23374;52.758;6.872;2023-02-05T01:58:11;5.00;1.00
37530;DHT22;23374;52.758;6.872;2023-02-05T02:00:32;5.10;1.00
37530;DHT22;23374;52.758;6.872;2023-02-05T02:02:53;5.10;1.00
37530;DHT22;23374;52.758;6.872;2023-02-05T02:05:16;5.10;1.00
37530;DHT22;23374;52.758;6.872;2023-02-05T02:07:37;5.10;1.00
37530;DHT22;23374;52.758;6.872;2023-02-05T02:09:57;5.20;1.00
37530;DHT22;23374;52.758;6.872;2023-02-05T02:12:22;5.20;1.00
37530;DHT22;23374;52.758;6.872;2023-02-05T02:14:47;5.20;1.00
37530;DHT22;23374;52.758;6.872;2023-02-05T02:17:10;5.20;1.00
37530;DHT22;23374;52.758;6.872;2023-02-05T02:20:01;5.30;1.00
37530;DHT22;23374;52.758;6.872;2023-02-05T02:23:10;5.30;1.00
37530;DHT22;23374;52.758;6.872;2023-02-05T02:26:16;5.30;1.00
37530;DHT22;23374;52.758;6.872;2023-02-05T02:28:57;5.30;1.00
37530;DHT22;23374;52.758;6.872;2023-02-05T02:31:37;5.30;1.00
37530;DHT22;23374;52.758;6.872;2023-02-05T02:34:38;5.30;1.00
37530;DHT22;23374;52.758;6.872;2023-02-05T02:37:17;5.30;1.00
37530;DHT22;23374;52.758;6.872;2023-02-05T02:39:59;5.30;1.00
37530;DHT22;23374;52.758;6.872;2023-02-05T02:42:30;5.40;1.00
37530;DHT22;23374;52.758;6.872;2023-02-05T02:45:06;5.40;1.00
37530;DHT22;23374;52.758;6.872;2023-02-05T02:47:31;5.40;1.00
37530;DHT22;23374;52.758;6.872;2023-02-05T02:50:43;5.40;1.00
37530;DHT22;23374;52.758;6.872;2023-02-05T02:53:20;5.40;1.00
37530;DHT22;23374;52.758;6.872;2023-02-05T02:55:42;5.40;1.00
37530;DHT22;23374;52.758;6.872;2023-02-05T02:58:23;5.40;1.00
37530;DHT22;23374;52.758;6.872;2023-02-05T03:00:44;5.40;1.00
37530;DHT22;23374;52.758;6.872;2023-02-05T03:03:07;5.30;1.00
37530;DHT22;23374;52.758;6.872;2023-02-05T03:05:29;5.30;1.00
37530;DHT22;23374;52.758;6.872;2023-02-05T03:08:01;5.30;1.00
37530;DHT22;23374;52.758;6.872;2023-02-05T03:16:39;5.30;31.60
37530;DHT22;23374;52.758;6.872;2023-02-05T03:19:00;5.20;99.90
37530;DHT22;23374;52.758;6.872;2023-02-05T03:21:42;5.20;99.90
37530;DHT22;23374;52.758;6.872;2023-02-05T03:24:04;5.20;92.70
37530;DHT22;23374;52.758;6.872;2023-02-05T03:26:32;5.20;96.30
37530;DHT22;23374;52.758;6.872;2023-02-05T03:29:00;5.20;99.80
37530;DHT22;23374;52.758;6.872;2023-02-05T03:39:43;5.20;99.90
37530;DHT22;23374;52.758;6.872;2023-02-05T03:43:05;5.20;99.90
37530;DHT22;23374;52.758;6.872;2023-02-05T03:47:21;5.20;99.90
37530;DHT22;23374;52.758;6.872;2023-02-05T03:50:37;5.30;99.90
37530;DHT22;23374;52.758;6.872;2023-02-05T03:53:37;5.30;99.90
37530;DHT22;23374;52.758;6.872;2023-02-05T03:56:21;5.30;99.90
37530;DHT22;23374;52.758;6.872;2023-02-05T03:58:47;5.30;99.90
37530;DHT22;23374;52.758;6.872;2023-02-05T04:01:10;5.30;99.90
37530;DHT22;23374;52.758;6.872;2023-02-05T04:03:31;5.30;99.90
37530;DHT22;23374;52.758;6.872;2023-02-05T04:05:51;5.30;99.90
37530;DHT22;23374;52.758;6.872;2023-02-05T04:08:12;5.30;99.90
37530;DHT22;23374;52.758;6.872;2023-02-05T04:10:32;5.40;99.90
37530;DHT22;23374;52.758;6.872;2023-02-05T04:12:52;5.40;99.90
37530;DHT22;23374;52.758;6.872;2023-02-05T04:15:13;5.40;99.90
37530;DHT22;23374;52.758;6.872;2023-02-05T04:17:34;5.50;99.90
37530;DHT22;23374;52.758;6.872;2023-02-05T04:19:54;5.50;99.90
37530;DHT22;23374;52.758;6.872;2023-02-05T04:22:15;5.50;99.90
37530;DHT22;23374;52.758;6.872;2023-02-05T04:24:35;5.60;99.90
37530;DHT22;23374;52.758;6.872;2023-02-05T04:26:55;5.60;99.90
37530;DHT22;23374;52.758;6.872;2023-02-05T04:29:16;5.60;99.90
37530;DHT22;23374;52.758;6.872;2023-02-05T04:31:36;5.70;99.90
37530;DHT22;23374;52.758;6.872;2023-02-05T04:34:02;5.70;99.90
37530;DHT22;23374;52.758;6.872;2023-02-05T04:36:22;5.70;99.90
37530;DHT22;23374;52.758;6.872;2023-02-05T04:38:42;5.70;99.90
37530;DHT22;23374;52.758;6.872;2023-02-05T04:41:03;5.70;99.90
37530;DHT22;23374;52.758;6.872;2023-02-05T04:43:24;5.70;99.90
37530;DHT22;23374;52.758;6.872;2023-02-05T04:45:44;5.70;99.90
37530;DHT22;23374;52.758;6.872;2023-02-05T04:48:04;5.80;99.90
37530;DHT22;23374;52.758;6.872;2023-02-05T04:50:26;5.80;99.90
37530;DHT22;23374;52.758;6.872;2023-02-05T04:53:19;5.80;99.90
37530;DHT22;23374;52.758;6.872;2023-02-05T04:55:39;5.80;99.90
37530;DHT22;23374;52.758;6.872;2023-02-05T04:57:59;5.80;99.90
37530;DHT22;23374;52.758;6.872;2023-02-05T05:00:20;5.80;99.90
37530;DHT22;23374;52.758;6.872;2023-02-05T05:02:41;5.80;99.90
37530;DHT22;23374;52.758;6.872;2023-02-05T05:05:01;5.80;99.90
37530;DHT22;23374;52.758;6.872;2023-02-05T05:07:21;5.80;99.90
37530;DHT22;23374;52.758;6.872;2023-02-05T05:09:42;5.80;99.90
37530;DHT22;23374;52.758;6.872;2023-02-05T05:12:03;5.80;99.90
37530;DHT22;23374;52.758;6.872;2023-02-05T05:14:24;5.80;99.90
37530;DHT22;23374;52.758;6.872;2023-02-05T05:16:44;5.80;99.90
37530;DHT22;23374;52.758;6.872;2023-02-05T05:19:05;5.80;99.90
37530;DHT22;23374;52.758;6.872;2023-02-05T05:21:25;5.80;99.90
37530;DHT22;23374;52.758;6.872;2023-02-05T05:23:45;5.90;99.90
37530;DHT22;23374;52.758;6.872;2023-02-05T05:26:08;5.90;99.90
37530;DHT22;23374;52.758;6.872;2023-02-05T05:28:29;5.90;99.90
37530;DHT22;23374;52.758;6.872;2023-02-05T05:30:52;5.90;99.90
37530;DHT22;23374;52.758;6.872;2023-02-05T05:33:13;5.90;99.90
37530;DHT22;23374;52.758;6.872;2023-02-05T05:35:33;5.90;99.90
37530;DHT22;23374;52.758;6.872;2023-02-05T05:37:56;5.90;99.90
37530;DHT22;23374;52.758;6.872;2023-02-05T05:40:17;5.90;99.90
37530;DHT22;23374;52.758;6.872;2023-02-05T05:42:56;5.90;99.90
37530;DHT22;23374;52.758;6.872;2023-02-05T05:45:34;5.90;99.90
37530;DHT22;23374;52.758;6.872;2023-02-05T05:47:55;5.90;99.90
37530;DHT22;23374;52.758;6.872;2023-02-05T05:50:16;5.90;99.90
37530;DHT22;23374;52.758;6.872;2023-02-05T05:53:24;5.90;99.90
37530;DHT22;23374;52.758;6.872;2023-02-05T05:55:44;5.90;99.90
37530;DHT22;23374;52.758;6.872;2023-02-05T05:58:05;5.90;99.90
37530;DHT22;23374;52.758;6.872;2023-02-05T06:00:25;6.00;99.90
37530;DHT22;23374;52.758;6.872;2023-02-05T06:02:45;6.00;99.90
37530;DHT22;23374;52.758;6.872;2023-02-05T06:05:06;6.00;99.90
37530;DHT22;23374;52.758;6.872;2023-02-05T06:07:26;6.00;99.90
37530;DHT22;23374;52.758;6.872;2023-02-05T06:09:47;6.10;99.90
37530;DHT22;23374;52.758;6.872;2023-02-05T06:12:08;6.10;99.90
37530;DHT22;23374;52.758;6.872;2023-02-05T06:14:28;6.10;99.90
37530;DHT22;23374;52.758;6.872;2023-02-05T06:16:49;6.20;99.90
37530;DHT22;23374;52.758;6.872;2023-02-05T06:19:11;6.20;99.90
37530;DHT22;23374;52.758;6.872;2023-02-05T06:21:31;6.20;99.90
37530;DHT22;23374;52.758;6.872;2023-02-05T06:23:51;6.20;99.90
37530;DHT22;23374;52.758;6.872;2023-02-05T06:26:11;6.30;99.90
37530;DHT22;23374;52.758;6.872;2023-02-05T06:28:31;6.30;99.90
37530;DHT22;23374;52.758;6.872;2023-02-05T06:30:51;6.30;99.90
37530;DHT22;23374;52.758;6.872;2023-02-05T06:33:11;6.30;99.90
37530;DHT22;23374;52.758;6.872;2023-02-05T06:35:32;6.40;99.90
37530;DHT22;23374;52.758;6.872;2023-02-05T06:37:52;6.40;99.90
37530;DHT22;23374;52.758;6.872;2023-02-05T06:40:13;6.40;99.90
37530;DHT22;23374;52.758;6.872;2023-02-05T06:42:34;6.40;99.90
37530;DHT22;23374;52.758;6.872;2023-02-05T06:44:54;6.40;99.90
37530;DHT22;23374;52.758;6.872;2023-02-05T06:47:14;6.30;99.90
37530;DHT22;23374;52.758;6.872;2023-02-05T06:49:34;6.30;99.90
37530;DHT22;23374;52.758;6.872;2023-02-05T06:51:55;6.30;99.90
37530;DHT22;23374;52.758;6.872;2023-02-05T06:54:16;6.30;99.90
37530;DHT22;23374;52.758;6.872;2023-02-05T06:56:36;6.30;99.90
37530;DHT22;23374;52.758;6.872;2023-02-05T06:58:57;6.30;99.90
37530;DHT22;23374;52.758;6.872;2023-02-05T07:01:17;6.30;99.90
37530;DHT22;23374;52.758;6.872;2023-02-05T07:03:38;6.20;99.90
37530;DHT22;23374;52.758;6.872;2023-02-05T07:06:05;6.20;99.90
37530;DHT22;23374;52.758;6.872;2023-02-05T07:08:25;6.20;99.90
37530;DHT22;23374;52.758;6.872;2023-02-05T07:10:46;6.20;99.90
37530;DHT22;23374;52.758;6.872;2023-02-05T07:13:06;6.10;99.90
37530;DHT22;23374;52.758;6.872;2023-02-05T07:15:27;6.10;99.90
37530;DHT22;23374;52.758;6.872;2023-02-05T07:17:48;6.10;99.90
37530;DHT22;23374;52.758;6.872;2023-02-05T07:20:09;6.10;99.90
37530;DHT22;23374;52.758;6.872;2023-02-05T07:22:30;6.10;99.90
37530;DHT22;23374;52.758;6.872;2023-02-05T07:24:50;6.10;99.90
37530;DHT22;23374;52.758;6.872;2023-02-05T07:27:10;6.10;99.90
37530;DHT22;23374;52.758;6.872;2023-02-05T07:29:31;6.10;99.90
37530;DHT22;23374;52.758;6.872;2023-02-05T07:31:51;6.10;99.90
37530;DHT22;23374;52.758;6.872;2023-02-05T07:34:11;6.10;99.90
37530;DHT22;23374;52.758;6.872;2023-02-05T07:36:32;6.10;99.90
37530;DHT22;23374;52.758;6.872;2023-02-05T07:38:52;6.10;99.90
37530;DHT22;23374;52.758;6.872;2023-02-05T07:41:15;6.10;99.90
37530;DHT22;23374;52.758;6.872;2023-02-05T07:43:36;6.10;99.90
37530;DHT22;23374;52.758;6.872;2023-02-05T07:45:58;6.10;99.90
37530;DHT22;23374;52.758;6.872;2023-02-05T07:48:19;6.10;99.90
37530;DHT22;23374;52.758;6.872;2023-02-05T07:50:43;6.10;99.90
37530;DHT22;23374;52.758;6.872;2023-02-05T07:53:04;6.10;99.90
37530;DHT22;23374;52.758;6.872;2023-02-05T07:55:24;6.10;99.90
37530;DHT22;23374;52.758;6.872;2023-02-05T07:57:44;6.10;99.90
37530;DHT22;23374;52.758;6.872;2023-02-05T08:00:08;6.10;99.90
37530;DHT22;23374;52.758;6.872;2023-02-05T08:02:28;6.10;99.90
37530;DHT22;23374;52.758;6.872;2023-02-05T08:04:49;6.10;99.90
37530;DHT22;23374;52.758;6.872;2023-02-05T08:07:12;6.10;99.90
37530;DHT22;23374;52.758;6.872;2023-02-05T08:09:33;6.10;99.90
37530;DHT22;23374;52.758;6.872;2023-02-05T08:11:53;6.10;99.90
37530;DHT22;23374;52.758;6.872;2023-02-05T08:14:13;6.10;99.90
37530;DHT22;23374;52.758;6.872;2023-02-05T08:16:33;6.10;99.90
37530;DHT22;23374;52.758;6.872;2023-02-05T08:18:53;6.10;99.90
37530;DHT22;23374;52.758;6.872;2023-02-05T08:21:15;6.10;99.90
37530;DHT22;23374;52.758;6.872;2023-02-05T08:23:35;6.10;99.90
37530;DHT22;23374;52.758;6.872;2023-02-05T08:25:57;6.10;99.90
37530;DHT22;23374;52.758;6.872;2023-02-05T08:28:17;6.10;99.90
37530;DHT22;23374;52.758;6.872;2023-02-05T08:30:38;6.10;99.90
37530;DHT22;23374;52.758;6.872;2023-02-05T08:32:58;6.10;99.90
37530;DHT22;23374;52.758;6.872;2023-02-05T08:35:19;6.20;99.90
37530;DHT22;23374;52.758;6.872;2023-02-05T08:37:39;6.20;99.90
37530;DHT22;23374;52.758;6.872;2023-02-05T08:39:59;6.20;99.90
37530;DHT22;23374;52.758;6.872;2023-02-05T08:42:20;6.20;99.90
37530;DHT22;23374;52.758;6.872;2023-02-05T08:44:41;6.30;99.90
37530;DHT22;23374;52.758;6.872;2023-02-05T08:47:01;6.30;99.90
37530;DHT22;23374;52.758;6.872;2023-02-05T08:49:22;6.30;99.90
37530;DHT22;23374;52.758;6.872;2023-02-05T08:51:42;6.40;99.90
37530;DHT22;23374;52.758;6.872;2023-02-05T08:54:02;6.40;99.90
37530;DHT22;23374;52.758;6.872;2023-02-05T08:56:25;6.40;99.90
37530;DHT22;23374;52.758;6.872;2023-02-05T08:58:45;6.50;99.90
37530;DHT22;23374;52.758;6.872;2023-02-05T09:01:09;6.50;99.90
37530;DHT22;23374;52.758;6.872;2023-02-05T09:03:30;6.60;99.90
37530;DHT22;23374;52.758;6.872;2023-02-05T09:05:51;6.60;99.90
37530;DHT22;23374;52.758;6.872;2023-02-05T09:08:12;6.60;99.90
37530;DHT22;23374;52.758;6.872;2023-02-05T09:10:32;6.60;99.90
37530;DHT22;23374;52.758;6.872;2023-02-05T09:12:52;6.60;99.90
37530;DHT22;23374;52.758;6.872;2023-02-05T09:15:13;6.70;99.90
37530;DHT22;23374;52.758;6.872;2023-02-05T09:17:33;6.70;99.90
37530;DHT22;23374;52.758;6.872;2023-02-05T09:19:54;6.70;99.90
37530;DHT22;23374;52.758;6.872;2023-02-05T09:22:14;6.70;99.90
37530;DHT22;23374;52.758;6.872;2023-02-05T09:24:36;6.80;99.90
37530;DHT22;23374;52.758;6.872;2023-02-05T09:26:57;6.80;99.90
37530;DHT22;23374;52.758;6.872;2023-02-05T09:29:18;6.80;99.90
37530;DHT22;23374;52.758;6.872;2023-02-05T09:31:40;6.90;99.90
37530;DHT22;23374;52.758;6.872;2023-02-05T09:34:01;6.90;99.90
37530;DHT22;23374;52.758;6.872;2023-02-05T09:36:22;6.90;99.90
37530;DHT22;23374;52.758;6.872;2023-02-05T09:38:43;6.90;99.90
37530;DHT22;23374;52.758;6.872;2023-02-05T09:41:18;6.90;93.40
37530;DHT22;23374;52.758;6.872;2023-02-05T09:53:30;7.00;30.70
37530;DHT22;23374;52.758;6.872;2023-02-05T09:55:52;7.00;27.50
37530;DHT22;23374;52.758;6.872;2023-02-05T09:58:20;7.00;17.50
37530;DHT22;23374;52.758;6.872;2023-02-05T10:01:02;7.00;26.80
37530;DHT22;23374;52.758;6.872;2023-02-05T10:03:46;7.10;8.00
37530;DHT22;23374;52.758;6.872;2023-02-05T10:10:02;7.10;1.00
37530;DHT22;23374;52.758;6.872;2023-02-05T10:13:43;7.10;1.00
37530;DHT22;23374;52.758;6.872;2023-02-05T10:16:30;7.10;1.00
37530;DHT22;23374;52.758;6.872;2023-02-05T10:26:15;7.20;1.00
37530;DHT22;23374;52.758;6.872;2023-02-05T10:30:54;7.20;1.00
37530;DHT22;23374;52.758;6.872;2023-02-05T10:38:26;7.10;1.00
37530;DHT22;23374;52.758;6.872;2023-02-05T10:40:47;7.20;1.00
37530;DHT22;23374;52.758;6.872;2023-02-05T10:44:39;7.20;1.00
37530;DHT22;23374;52.758;6.872;2023-02-05T10:47:37;7.30;1.00
37530;DHT22;23374;52.758;6.872;2023-02-05T10:50:29;7.40;1.00
37530;DHT22;23374;52.758;6.872;2023-02-05T10:52:55;7.50;1.00
37530;DHT22;23374;52.758;6.872;2023-02-05T10:55:15;7.50;1.00
37530;DHT22;23374;52.758;6.872;2023-02-05T10:57:36;7.50;1.00
37530;DHT22;23374;52.758;6.872;2023-02-05T11:00:19;7.50;99.90
37530;DHT22;23374;52.758;6.872;2023-02-05T11:02:45;7.50;1.00
37530;DHT22;23374;52.758;6.872;2023-02-05T11:05:52;7.60;99.90
37530;DHT22;23374;52.758;6.872;2023-02-05T11:08:42;7.70;1.00
37530;DHT22;23374;52.758;6.872;2023-02-05T11:11:04;7.80;1.00
37530;DHT22;23374;52.758;6.872;2023-02-05T11:13:26;7.80;1.00
37530;DHT22;23374;52.758;6.872;2023-02-05T11:16:05;7.80;1.00
37530;DHT22;23374;52.758;6.872;2023-02-05T11:18:37;7.90;1.00
37530;DHT22;23374;52.758;6.872;2023-02-05T11:21:01;7.90;1.00
37530;DHT22;23374;52.758;6.872;2023-02-05T11:23:24;7.90;99.90
37530;DHT22;23374;52.758;6.872;2023-02-05T11:26:26;7.80;99.90
37530;DHT22;23374;52.758;6.872;2023-02-05T11:28:47;7.90;99.90
37530;DHT22;23374;52.758;6.872;2023-02-05T11:31:31;7.80;99.90
37530;DHT22;23374;52.758;6.872;2023-02-05T11:34:16;7.80;93.00
37530;DHT22;23374;52.758;6.872;2023-02-05T11:36:51;7.80;99.90
37530;DHT22;23374;52.758;6.872;2023-02-05T11:39:34;7.80;97.00
37530;DHT22;23374;52.758;6.872;2023-02-05T11:41:56;7.90;1.00
37530;DHT22;23374;52.758;6.872;2023-02-05T11:44:29;7.90;1.00
37530;DHT22;23374;52.758;6.872;2023-02-05T11:46:58;7.90;1.00
37530;DHT22;23374;52.758;6.872;2023-02-05T11:49:34;7.90;99.90
37530;DHT22;23374;52.758;6.872;2023-02-05T11:51:56;7.90;1.00
37530;DHT22;23374;52.758;6.872;2023-02-05T11:54:32;7.90;1.00
37530;DHT22;23374;52.758;6.872;2023-02-05T11:57:30;8.00;1.00
37530;DHT22;23374;52.758;6.872;2023-02-05T12:03:20;8.10;42.80
37530;DHT22;23374;52.758;6.872;2023-02-05T12:05:49;8.00;1.00
37530;DHT22;23374;52.758;6.872;2023-02-05T12:09:19;8.00;1.00
37530;DHT22;23374;52.758;6.872;2023-02-05T12:12:18;8.00;1.00
37530;DHT22;23374;52.758;6.872;2023-02-05T12:21:01;8.00;1.00
37530;DHT22;23374;52.758;6.872;2023-02-05T12:26:39;8.00;1.00
37530;DHT22;23374;52.758;6.872;2023-02-05T12:32:14;8.10;1.00
37530;DHT22;23374;52.758;6.872;2023-02-05T12:36:10;8.10;1.00
37530;DHT22;23374;52.758;6.872;2023-02-05T12:39:01;8.10;1.00
37530;DHT22;23374;52.758;6.872;2023-02-05T12:44:29;8.10;1.00
37530;DHT22;23374;52.758;6.872;2023-02-05T12:52:12;8.20;99.90
37530;DHT22;23374;52.758;6.872;2023-02-05T12:57:50;8.20;1.00
37530;DHT22;23374;52.758;6.872;2023-02-05T13:00:22;8.30;1.00
37530;DHT22;23374;52.758;6.872;2023-02-05T13:03:29;8.30;1.00
37530;DHT22;23374;52.758;6.872;2023-02-05T13:06:07;8.30;1.00
37530;DHT22;23374;52.758;6.872;2023-02-05T13:10:13;8.30;1.00
37530;DHT22;23374;52.758;6.872;2023-02-05T13:12:42;8.30;1.00
37530;DHT22;23374;52.758;6.872;2023-02-05T13:15:22;8.40;1.00
37530;DHT22;23374;52.758;6.872;2023-02-05T13:18:16;8.30;99.90
37530;DHT22;23374;52.758;6.872;2023-02-05T13:21:02;8.40;1.00
37530;DHT22;23374;52.758;6.872;2023-02-05T13:23:44;8.40;1.00
37530;DHT22;23374;52.758;6.872;2023-02-05T13:26:31;8.40;1.00
37530;DHT22;23374;52.758;6.872;2023-02-05T13:29:14;8.30;99.90
37530;DHT22;23374;52.758;6.872;2023-02-05T13:31:42;8.30;1.00
37530;DHT22;23374;52.758;6.872;2023-02-05T13:34:12;8.30;1.00
37530;DHT22;23374;52.758;6.872;2023-02-05T13:38:32;8.30;99.90
37530;DHT22;23374;52.758;6.872;2023-02-05T13:49:11;8.30;99.90
37530;DHT22;23374;52.758;6.872;2023-02-05T13:55:35;8.30;99.90
37530;DHT22;23374;52.758;6.872;2023-02-05T13:58:24;8.30;99.90
37530;DHT22;23374;52.758;6.872;2023-02-05T14:00:59;8.30;1.00
37530;DHT22;23374;52.758;6.872;2023-02-05T14:03:36;8.20;99.90
37530;DHT22;23374;52.758;6.872;2023-02-05T14:05:57;8.20;1.00
37530;DHT22;23374;52.758;6.872;2023-02-05T14:08:23;8.20;1.00
37530;DHT22;23374;52.758;6.872;2023-02-05T14:10:45;8.30;1.00
37530;DHT22;23374;52.758;6.872;2023-02-05T14:13:27;8.30;1.00
37530;DHT22;23374;52.758;6.872;2023-02-05T14:15:52;8.30;1.00
37530;DHT22;23374;52.758;6.872;2023-02-05T14:19:23;8.30;1.00
37530;DHT22;23374;52.758;6.872;2023-02-05T14:21:59;8.30;1.00
37530;DHT22;23374;52.758;6.872;2023-02-05T14:24:53;8.30;1.00
37530;DHT22;23374;52.758;6.872;2023-02-05T14:31:55;8.20;37.50
37530;DHT22;23374;52.758;6.872;2023-02-05T14:41:15;8.20;97.60
37530;DHT22;23374;52.758;6.872;2023-02-05T14:43:40;8.20;99.90
37530;DHT22;23374;52.758;6.872;2023-02-05T14:46:33;8.30;99.90
37530;DHT22;23374;52.758;6.872;2023-02-05T14:48:57;8.30;99.90
37530;DHT22;23374;52.758;6.872;2023-02-05T14:51:38;8.30;99.90
37530;DHT22;23374;52.758;6.872;2023-02-05T14:54:19;8.20;99.90
37530;DHT22;23374;52.758;6.872;2023-02-05T14:56:45;8.20;99.90
37530;DHT22;23374;52.758;6.872;2023-02-05T14:59:36;8.10;99.90
37530;DHT22;23374;52.758;6.872;2023-02-05T15:01:58;8.10;99.90
37530;DHT22;23374;52.758;6.872;2023-02-05T15:04:45;8.10;99.90
37530;DHT22;23374;52.758;6.872;2023-02-05T15:07:23;8.00;1.00
37530;DHT22;23374;52.758;6.872;2023-02-05T15:10:24;8.00;1.00
37530;DHT22;23374;52.758;6.872;2023-02-05T15:13:11;8.00;1.00
37530;DHT22;23374;52.758;6.872;2023-02-05T15:15:34;8.00;1.00
37530;DHT22;23374;52.758;6.872;2023-02-05T15:19:49;8.00;1.00
37530;DHT22;23374;52.758;6.872;2023-02-05T15:22:35;8.00;1.00
37530;DHT22;23374;52.758;6.872;2023-02-05T15:24:56;8.00;1.00
37530;DHT22;23374;52.758;6.872;2023-02-05T15:27:22;8.00;1.00
37530;DHT22;23374;52.758;6.872;2023-02-05T15:29:47;7.90;1.00
37530;DHT22;23374;52.758;6.872;2023-02-05T15:32:41;7.90;1.00
37530;DHT22;23374;52.758;6.872;2023-02-05T15:35:10;7.90;1.00
37530;DHT22;23374;52.758;6.872;2023-02-05T15:43:19;7.90;1.00
37530;DHT22;23374;52.758;6.872;2023-02-05T15:45:40;7.80;12.30
37530;DHT22;23374;52.758;6.872;2023-02-05T15:48:23;7.80;59.80
37530;DHT22;23374;52.758;6.872;2023-02-05T15:50:55;7.80;99.90
37530;DHT22;23374;52.758;6.872;2023-02-05T15:56:52;7.80;99.90
37530;DHT22;23374;52.758;6.872;2023-02-05T15:59:34;7.70;99.90
37530;DHT22;23374;52.758;6.872;2023-02-05T16:02:16;7.70;99.90
37530;DHT22;23374;52.758;6.872;2023-02-05T16:04:38;7.60;99.90
37530;DHT22;23374;52.758;6.872;2023-02-05T16:06:59;7.60;99.90
37530;DHT22;23374;52.758;6.872;2023-02-05T16:09:23;7.50;99.90
37530;DHT22;23374;52.758;6.872;2023-02-05T16:11:45;7.50;99.90
37530;DHT22;23374;52.758;6.872;2023-02-05T16:14:16;7.50;99.90
37530;DHT22;23374;52.758;6.872;2023-02-05T16:16:41;7.40;99.90
37530;DHT22;23374;52.758;6.872;2023-02-05T16:19:04;7.40;1.00
37530;DHT22;23374;52.758;6.872;2023-02-05T16:21:36;7.40;99.90
37530;DHT22;23374;52.758;6.872;2023-02-05T16:24:05;7.30;99.90
37530;DHT22;23374;52.758;6.872;2023-02-05T16:27:55;7.30;1.00
37530;DHT22;23374;52.758;6.872;2023-02-05T16:30:39;7.20;1.00
37530;DHT22;23374;52.758;6.872;2023-02-05T16:33:02;7.20;1.00
37530;DHT22;23374;52.758;6.872;2023-02-05T16:35:34;7.10;1.00
37530;DHT22;23374;52.758;6.872;2023-02-05T16:37:56;7.10;1.00
37530;DHT22;23374;52.758;6.872;2023-02-05T16:40:31;7.10;1.00
37530;DHT22;23374;52.758;6.872;2023-02-05T16:42:53;7.00;1.00
37530;DHT22;23374;52.758;6.872;2023-02-05T16:45:21;7.00;1.00
37530;DHT22;23374;52.758;6.872;2023-02-05T16:47:42;7.00;4.10
37530;DHT22;23374;52.758;6.872;2023-02-05T16:51:04;7.00;99.90
37530;DHT22;23374;52.758;6.872;2023-02-05T16:53:31;6.90;37.10
37530;DHT22;23374;52.758;6.872;2023-02-05T16:57:31;6.90;99.90
37530;DHT22;23374;52.758;6.872;2023-02-05T17:00:16;6.90;99.90
37530;DHT22;23374;52.758;6.872;2023-02-05T17:02:39;6.80;99.90
37530;DHT22;23374;52.758;6.872;2023-02-05T17:05:05;6.80;99.90
37530;DHT22;23374;52.758;6.872;2023-02-05T17:07:26;6.70;99.90
37530;DHT22;23374;52.758;6.872;2023-02-05T17:09:48;6.70;1.00
37530;DHT22;23374;52.758;6.872;2023-02-05T17:12:36;6.70;1.00
37530;DHT22;23374;52.758;6.872;2023-02-05T17:18:29;6.70;1.00
37530;DHT22;23374;52.758;6.872;2023-02-05T17:21:23;6.70;1.00
37530;DHT22;23374;52.758;6.872;2023-02-05T17:23:50;6.60;1.00
37530;DHT22;23374;52.758;6.872;2023-02-05T17:26:11;6.60;2.80
37530;DHT22;23374;52.758;6.872;2023-02-05T17:28:32;6.60;68.20
37530;DHT22;23374;52.758;6.872;2023-02-05T17:30:57;6.50;99.90
37530;DHT22;23374;52.758;6.872;2023-02-05T17:33:22;6.50;99.90
37530;DHT22;23374;52.758;6.872;2023-02-05T17:35:42;6.50;99.90
37530;DHT22;23374;52.758;6.872;2023-02-05T17:38:03;6.50;1.00
37530;DHT22;23374;52.758;6.872;2023-02-05T17:40:23;6.50;1.00
37530;DHT22;23374;52.758;6.872;2023-02-05T17:42:43;6.50;1.00
37530;DHT22;23374;52.758;6.872;2023-02-05T17:45:20;6.50;1.00
37530;DHT22;23374;52.758;6.872;2023-02-05T17:47:41;6.50;1.00
37530;DHT22;23374;52.758;6.872;2023-02-05T17:50:02;6.50;1.00
37530;DHT22;23374;52.758;6.872;2023-02-05T17:52:23;6.40;1.00
37530;DHT22;23374;52.758;6.872;2023-02-05T17:54:44;6.40;1.00
37530;DHT22;23374;52.758;6.872;2023-02-05T17:57:20;6.40;1.00
37530;DHT22;23374;52.758;6.872;2023-02-05T17:59:41;6.40;1.00
37530;DHT22;23374;52.758;6.872;2023-02-05T18:02:03;6.40;1.00